createdAt,value
2018-06-27T00:00:38.519Z,15.17
2018-06-27T00:03:06.230Z,15.11
2018-06-27T00:05:33.594Z,15.04
2018-06-27T00:08:00.865Z,15.07
2018-06-27T00:10:28.251Z,15.03
2018-06-27T00:12:55.568Z,14.94
2018-06-27T00:15:23.017Z,14.95
2018-06-27T00:17:50.272Z,14.93
2018-06-27T00:20:17.579Z,14.85
2018-06-27T00:22:45.312Z,14.77
2018-06-27T00:25:12.580Z,14.78
2018-06-27T00:27:39.965Z,14.77
2018-06-27T00:30:07.295Z,14.72
2018-06-27T00:32:34.568Z,14.76
2018-06-27T00:35:01.938Z,14.75
2018-06-27T00:37:29.243Z,14.79
2018-06-27T00:39:56.621Z,14.72
2018-06-27T00:42:23.948Z,14.72
2018-06-27T00:44:51.251Z,14.65
2018-06-27T00:47:18.515Z,14.64
2018-06-27T00:49:45.683Z,14.61
2018-06-27T00:52:14.208Z,14.59
2018-06-27T00:54:41.485Z,14.51
2018-06-27T00:57:08.870Z,14.48
2018-06-27T00:59:36.192Z,14.51
2018-06-27T01:02:03.579Z,14.52
2018-06-27T01:04:30.896Z,14.47
2018-06-27T01:06:58.097Z,14.46
2018-06-27T01:09:25.427Z,14.34
2018-06-27T01:11:52.699Z,14.33
2018-06-27T01:14:28.795Z,14.38
2018-06-27T01:16:56.170Z,14.32
2018-06-27T01:19:23.429Z,14.27
2018-06-27T01:21:50.774Z,14.22
2018-06-27T01:24:18.141Z,14.21
2018-06-27T01:26:45.492Z,14.12
2018-06-27T01:29:12.790Z,14.11
2018-06-27T01:31:40.162Z,14.17
2018-06-27T01:34:07.681Z,14.20
2018-06-27T01:36:35.024Z,14.16
2018-06-27T01:39:05.234Z,14.20
2018-06-27T01:41:32.532Z,14.11
2018-06-27T01:44:00.239Z,14.14
2018-06-27T01:46:27.517Z,14.12
2018-06-27T01:48:54.823Z,14.05
2018-06-27T01:51:26.075Z,14.09
2018-06-27T01:53:53.435Z,14.04
2018-06-27T01:56:20.734Z,14.08
2018-06-27T01:58:48.028Z,14.03
2018-06-27T02:01:15.327Z,13.99
2018-06-27T02:03:42.561Z,14.02
2018-06-27T02:06:09.878Z,13.94
2018-06-27T02:08:37.168Z,13.87
2018-06-27T02:11:04.517Z,13.79
2018-06-27T02:13:31.753Z,13.73
2018-06-27T02:15:59.096Z,13.78
2018-06-27T02:18:26.290Z,13.69
2018-06-27T02:20:53.568Z,13.73
2018-06-27T02:23:20.821Z,13.74
2018-06-27T02:25:48.201Z,13.70
2018-06-27T02:28:15.500Z,13.67
2018-06-27T02:30:42.901Z,13.63
2018-06-27T02:33:14.684Z,13.61
2018-06-27T02:35:41.983Z,13.62
2018-06-27T02:38:09.268Z,13.58
2018-06-27T02:40:37.152Z,13.59
2018-06-27T02:43:05.925Z,13.54
2018-06-27T02:45:33.294Z,13.55
2018-06-27T02:48:00.591Z,13.60
2018-06-27T02:50:27.968Z,13.59
2018-06-27T02:52:55.232Z,13.60
2018-06-27T02:55:23.419Z,13.60
2018-06-27T02:57:50.772Z,13.54
2018-06-27T03:00:18.140Z,13.46
2018-06-27T03:02:46.351Z,13.40
2018-06-27T03:05:13.659Z,13.36
2018-06-27T03:07:41.166Z,13.29
2018-06-27T03:10:08.542Z,13.26
2018-06-27T03:12:35.848Z,13.25
2018-06-27T03:15:05.123Z,13.23
2018-06-27T03:17:41.857Z,13.21
2018-06-27T03:20:11.415Z,13.26
2018-06-27T03:22:50.045Z,13.34
2018-06-27T03:25:17.804Z,13.30
2018-06-27T03:27:45.090Z,13.31
2018-06-27T03:30:12.458Z,13.32
2018-06-27T03:32:39.704Z,13.28
2018-06-27T03:35:07.014Z,13.20
2018-06-27T03:40:26.535Z,13.17
2018-06-27T03:42:54.008Z,13.24
2018-06-27T03:45:30.446Z,13.23
2018-06-27T03:47:57.737Z,13.20
2018-06-27T03:50:25.092Z,13.17
2018-06-27T03:52:52.418Z,13.15
2018-06-27T03:55:19.747Z,13.19
2018-06-27T03:57:47.129Z,13.24
2018-06-27T04:00:14.440Z,13.23
2018-06-27T04:02:41.804Z,13.24
2018-06-27T04:05:09.081Z,13.26
2018-06-27T04:07:36.496Z,13.26
2018-06-27T04:10:03.854Z,13.57
2018-06-27T04:12:31.157Z,13.46
2018-06-27T04:15:04.048Z,13.42
2018-06-27T04:17:31.346Z,13.33
2018-06-27T04:19:58.627Z,13.17
2018-06-27T04:22:36.562Z,13.17
2018-06-27T04:25:04.333Z,13.16
2018-06-27T04:27:33.897Z,13.12
2018-06-27T04:30:04.409Z,13.17
2018-06-27T04:32:31.802Z,13.23
2018-06-27T04:35:11.221Z,13.58
2018-06-27T04:37:50.136Z,13.56
2018-06-27T04:40:17.558Z,13.49
2018-06-27T04:42:44.871Z,13.43
2018-06-27T04:45:12.176Z,13.51
2018-06-27T04:47:39.506Z,13.50
2018-06-27T04:50:06.796Z,13.60
2018-06-27T04:52:34.371Z,13.70
2018-06-27T04:55:01.695Z,13.82
2018-06-27T04:57:29.001Z,13.89
2018-06-27T04:59:56.250Z,13.96
2018-06-27T05:02:24.196Z,13.91
2018-06-27T05:04:51.884Z,13.93
2018-06-27T05:07:19.220Z,13.99
2018-06-27T05:09:46.484Z,14.16
2018-06-27T05:12:13.762Z,14.25
2018-06-27T05:14:41.361Z,14.28
2018-06-27T05:17:09.063Z,14.39
2018-06-27T05:19:39.959Z,14.50
2018-06-27T05:22:07.332Z,14.62
2018-06-27T05:24:34.615Z,14.70
2018-06-27T05:27:02.057Z,14.80
2018-06-27T05:29:29.372Z,14.92
2018-06-27T05:31:56.838Z,15.07
2018-06-27T05:34:24.301Z,15.22
2018-06-27T05:36:51.724Z,15.32
2018-06-27T05:39:19.085Z,15.42
2018-06-27T05:41:48.299Z,15.58
2018-06-27T05:44:16.048Z,15.77
2018-06-27T05:46:43.399Z,15.93
2018-06-27T05:49:10.794Z,15.94
2018-06-27T05:51:38.220Z,15.96
2018-06-27T05:54:05.667Z,16.03
2018-06-27T05:56:32.970Z,16.24
2018-06-27T05:59:00.352Z,16.47
2018-06-27T06:01:27.659Z,16.60
2018-06-27T06:03:54.981Z,16.72
2018-06-27T06:06:22.339Z,17.01
2018-06-27T06:08:49.662Z,17.25
2018-06-27T06:11:16.931Z,17.48
2018-06-27T06:13:44.173Z,17.77
2018-06-27T06:16:11.433Z,17.99
2018-06-27T06:18:38.792Z,18.17
2018-06-27T06:21:06.077Z,18.37
2018-06-27T06:23:33.316Z,18.37
2018-06-27T06:26:00.595Z,18.52
2018-06-27T06:28:27.962Z,18.76
2018-06-27T06:30:55.228Z,18.79
2018-06-27T06:33:22.488Z,18.93
2018-06-27T06:35:49.782Z,19.13
2018-06-27T06:38:17.088Z,19.20
2018-06-27T06:40:44.418Z,19.46
2018-06-27T06:43:11.708Z,19.69
2018-06-27T06:45:39.138Z,19.82
2018-06-27T06:48:06.518Z,19.80
2018-06-27T06:50:33.792Z,19.57
2018-06-27T06:53:01.078Z,19.49
2018-06-27T06:55:29.575Z,19.77
2018-06-27T06:57:56.939Z,19.95
2018-06-27T07:00:24.481Z,20.02
2018-06-27T07:02:51.854Z,20.17
2018-06-27T07:05:19.130Z,20.48
2018-06-27T07:07:47.150Z,20.53
2018-06-27T07:10:14.475Z,20.49
2018-06-27T07:12:41.691Z,20.67
2018-06-27T07:15:08.984Z,20.86
2018-06-27T07:17:36.440Z,20.66
2018-06-27T07:20:03.868Z,20.93
2018-06-27T07:22:31.298Z,21.15
2018-06-27T07:24:58.663Z,21.36
2018-06-27T07:27:25.939Z,21.72
2018-06-27T07:29:53.237Z,21.70
2018-06-27T07:32:20.561Z,22.20
2018-06-27T07:34:47.863Z,22.78
2018-06-27T07:37:15.312Z,22.90
2018-06-27T07:39:42.575Z,22.89
2018-06-27T07:42:10.053Z,22.84
2018-06-27T07:44:37.515Z,22.48
2018-06-27T07:47:05.009Z,22.64
2018-06-27T07:49:32.300Z,23.22
2018-06-27T07:52:00.064Z,22.99
2018-06-27T07:57:02.207Z,23.39
2018-06-27T07:59:29.750Z,23.60
2018-06-27T08:01:57.182Z,23.50
2018-06-27T08:04:24.517Z,23.72
2018-06-27T08:06:51.863Z,23.84
2018-06-27T08:09:19.287Z,24.27
2018-06-27T08:11:46.681Z,24.71
2018-06-27T08:14:14.343Z,24.58
2018-06-27T08:16:41.777Z,24.82
2018-06-27T08:19:14.388Z,24.53
2018-06-27T08:21:55.008Z,24.23
2018-06-27T08:24:22.249Z,23.60
2018-06-27T08:26:49.707Z,23.08
2018-06-27T08:29:17.090Z,22.90
2018-06-27T08:31:44.500Z,23.54
2018-06-27T08:34:11.772Z,23.94
2018-06-27T08:36:39.941Z,24.05
2018-06-27T08:39:08.284Z,24.09
2018-06-27T08:41:35.589Z,24.25
2018-06-27T08:44:03.025Z,23.79
2018-06-27T08:46:30.458Z,24.03
2018-06-27T08:48:57.832Z,24.41
2018-06-27T08:51:25.175Z,24.91
2018-06-27T08:53:52.640Z,25.11
2018-06-27T08:56:20.733Z,25.09
2018-06-27T08:58:48.096Z,25.36
2018-06-27T09:01:15.459Z,25.37
2018-06-27T09:03:42.966Z,25.66
2018-06-27T09:06:10.419Z,25.77
2018-06-27T09:08:37.840Z,26.03
2018-06-27T09:11:05.242Z,25.92
2018-06-27T09:13:32.604Z,26.17
2018-06-27T09:15:59.897Z,26.25
2018-06-27T09:18:27.247Z,26.30
2018-06-27T09:23:49.014Z,26.79
2018-06-27T09:26:16.737Z,26.91
2018-06-27T09:28:44.266Z,27.10
2018-06-27T09:31:15.949Z,26.47
2018-06-27T09:33:47.928Z,26.50
2018-06-27T09:36:15.548Z,25.84
2018-06-27T09:38:43.402Z,26.80
2018-06-27T09:41:10.885Z,27.07
2018-06-27T09:43:38.317Z,27.32
2018-06-27T09:46:05.957Z,27.33
2018-06-27T09:48:33.445Z,27.22
2018-06-27T09:51:00.925Z,27.41
2018-06-27T09:53:28.303Z,27.70
2018-06-27T09:55:55.613Z,27.43
2018-06-27T09:58:23.088Z,27.39
2018-06-27T10:01:02.877Z,27.52
2018-06-27T10:03:31.718Z,27.80
2018-06-27T10:05:59.026Z,27.92
2018-06-27T10:08:26.249Z,28.46
2018-06-27T10:10:53.543Z,28.00
2018-06-27T10:13:20.844Z,27.74
2018-06-27T10:15:48.148Z,27.61
2018-06-27T10:18:15.453Z,27.73
2018-06-27T10:20:42.806Z,28.16
2018-06-27T10:23:10.121Z,28.25
2018-06-27T10:25:37.542Z,27.64
2018-06-27T10:28:08.213Z,27.32
2018-06-27T10:30:35.704Z,26.95
2018-06-27T10:33:03.146Z,27.15
2018-06-27T10:35:31.040Z,28.05
2018-06-27T10:37:58.554Z,28.41
2018-06-27T10:40:26.584Z,28.41
2018-06-27T10:42:54.410Z,29.01
2018-06-27T10:45:21.781Z,29.55
2018-06-27T10:47:49.265Z,29.70
2018-06-27T10:50:16.952Z,29.94
2018-06-27T10:52:44.232Z,29.58
2018-06-27T10:55:18.521Z,29.79
2018-06-27T10:57:54.072Z,29.80
2018-06-27T11:00:22.843Z,28.67
2018-06-27T11:02:50.198Z,27.78
2018-06-27T11:05:17.545Z,27.86
2018-06-27T11:07:44.898Z,28.92
2018-06-27T11:10:12.292Z,29.48
2018-06-27T11:12:39.711Z,30.02
2018-06-27T11:15:07.777Z,29.92
2018-06-27T11:17:36.103Z,30.28
2018-06-27T11:20:03.633Z,30.70
2018-06-27T11:22:32.125Z,30.38
2018-06-27T11:24:59.436Z,29.00
2018-06-27T11:27:26.744Z,28.26
2018-06-27T11:29:54.062Z,27.40
2018-06-27T11:32:21.320Z,27.43
2018-06-27T11:34:49.030Z,28.43
2018-06-27T11:37:26.568Z,28.98
2018-06-27T11:42:32.969Z,29.85
2018-06-27T11:45:00.704Z,29.32
2018-06-27T11:47:27.954Z,28.62
2018-06-27T11:49:55.311Z,27.70
2018-06-27T11:52:22.678Z,28.15
2018-06-27T11:54:55.810Z,29.04
2018-06-27T11:57:31.586Z,29.83
2018-06-27T11:59:59.232Z,29.79
2018-06-27T12:02:26.628Z,30.25
2018-06-27T12:04:54.044Z,30.77
2018-06-27T12:07:21.341Z,31.06
2018-06-27T12:09:48.670Z,30.19
2018-06-27T12:12:16.014Z,29.82
2018-06-27T12:14:47.620Z,29.28
2018-06-27T12:17:14.964Z,28.72
2018-06-27T12:19:42.255Z,28.75
2018-06-27T12:22:09.617Z,29.76
2018-06-27T12:24:36.919Z,30.38
2018-06-27T12:27:04.217Z,30.16
2018-06-27T12:29:31.528Z,30.41
2018-06-27T12:31:58.828Z,30.62
2018-06-27T12:34:31.292Z,30.96
2018-06-27T12:36:58.572Z,31.23
2018-06-27T12:39:25.858Z,31.54
2018-06-27T12:41:53.139Z,30.93
2018-06-27T12:44:23.895Z,29.06
2018-06-27T12:46:51.313Z,29.15
2018-06-27T12:49:18.673Z,29.66
2018-06-27T12:51:45.993Z,30.39
2018-06-27T12:54:13.345Z,30.00
2018-06-27T12:56:40.721Z,28.86
2018-06-27T12:59:07.977Z,29.71
2018-06-27T13:01:35.290Z,30.45
2018-06-27T13:04:02.731Z,31.12
2018-06-27T13:06:30.228Z,30.20
2018-06-27T13:08:57.667Z,28.95
2018-06-27T13:11:24.934Z,28.24
2018-06-27T13:13:52.299Z,28.40
2018-06-27T13:16:19.618Z,27.68
2018-06-27T13:18:46.973Z,27.55
2018-06-27T13:21:17.477Z,28.48
2018-06-27T13:23:44.942Z,29.11
2018-06-27T13:26:12.330Z,30.29
2018-06-27T13:28:39.675Z,30.90
2018-06-27T13:31:07.018Z,31.24
2018-06-27T13:33:34.257Z,30.97
2018-06-27T13:36:01.575Z,29.52
2018-06-27T13:38:28.968Z,28.73
2018-06-27T13:40:56.296Z,28.71
2018-06-27T13:43:23.841Z,29.57
2018-06-27T13:45:51.462Z,29.93
2018-06-27T13:48:19.080Z,30.48
2018-06-27T13:50:46.434Z,29.71
2018-06-27T13:53:13.738Z,29.64
2018-06-27T13:55:41.057Z,30.24
2018-06-27T13:58:08.473Z,30.72
2018-06-27T14:00:35.802Z,30.88
2018-06-27T14:03:03.167Z,30.83
2018-06-27T14:05:32.529Z,30.93
2018-06-27T14:08:00.070Z,31.03
2018-06-27T14:10:27.483Z,31.44
2018-06-27T14:12:54.780Z,31.79
2018-06-27T14:15:22.109Z,30.89
2018-06-27T14:17:49.413Z,30.54
2018-06-27T14:20:16.784Z,30.49
2018-06-27T14:22:44.208Z,30.72
2018-06-27T14:25:11.680Z,31.16
2018-06-27T14:27:38.998Z,30.27
2018-06-27T14:30:06.340Z,29.99
2018-06-27T14:32:33.672Z,30.35
2018-06-27T14:35:01.239Z,30.86
2018-06-27T14:37:28.458Z,31.20
2018-06-27T14:39:55.833Z,31.04
2018-06-27T14:42:23.152Z,30.97
2018-06-27T14:44:50.504Z,31.20
2018-06-27T14:47:17.792Z,30.69
2018-06-27T14:49:45.134Z,30.28
2018-06-27T14:52:22.258Z,30.15
2018-06-27T14:54:52.578Z,30.44
2018-06-27T14:57:20.337Z,30.39
2018-06-27T14:59:48.322Z,30.67
2018-06-27T15:02:15.906Z,31.02
2018-06-27T15:04:43.663Z,30.57
2018-06-27T15:07:11.068Z,29.89
2018-06-27T15:09:38.469Z,30.03
2018-06-27T15:12:05.834Z,30.10
2018-06-27T15:14:33.415Z,30.21
2018-06-27T15:17:00.936Z,30.26
2018-06-27T15:19:28.303Z,30.49
2018-06-27T15:21:55.703Z,30.10
2018-06-27T15:24:23.101Z,29.59
2018-06-27T15:26:50.423Z,28.97
2018-06-27T15:29:17.828Z,29.45
2018-06-27T15:31:45.157Z,29.35
2018-06-27T15:34:12.593Z,29.57
2018-06-27T15:36:40.616Z,29.61
2018-06-27T15:39:08.992Z,29.85
2018-06-27T15:41:36.334Z,30.13
2018-06-27T15:44:03.887Z,30.21
2018-06-27T15:46:31.191Z,30.16
2018-06-27T15:48:58.612Z,30.30
2018-06-27T15:51:25.989Z,30.26
2018-06-27T15:54:03.036Z,30.12
2018-06-27T15:56:31.589Z,29.73
2018-06-27T15:58:59.027Z,29.35
2018-06-27T16:01:29.771Z,28.78
2018-06-27T16:04:05.311Z,28.66
2018-06-27T16:06:33.893Z,28.71
2018-06-27T16:09:13.484Z,29.04
2018-06-27T16:11:44.888Z,29.27
2018-06-27T16:14:13.504Z,29.38
2018-06-27T16:16:40.920Z,29.21
2018-06-27T16:19:08.221Z,29.07
2018-06-27T16:21:35.539Z,28.51
2018-06-27T16:24:02.918Z,28.99
2018-06-27T16:29:24.373Z,28.76
2018-06-27T16:31:52.538Z,28.70
2018-06-27T16:34:19.857Z,28.57
2018-06-27T16:36:47.177Z,28.39
2018-06-27T16:39:17.791Z,28.46
2018-06-27T16:41:45.195Z,28.41
2018-06-27T16:44:24.692Z,28.24
2018-06-27T16:46:52.329Z,28.09
2018-06-27T16:49:21.419Z,28.22
2018-06-27T16:51:51.239Z,27.84
2018-06-27T16:54:18.594Z,27.59
2018-06-27T16:56:46.140Z,27.23
2018-06-27T16:59:13.498Z,27.21
2018-06-27T17:01:40.825Z,27.15
2018-06-27T17:04:08.559Z,27.06
2018-06-27T17:06:35.861Z,26.97
2018-06-27T17:09:11.465Z,26.66
2018-06-27T17:11:43.568Z,26.41
2018-06-27T17:14:10.890Z,26.07
2018-06-27T17:16:38.306Z,26.16
2018-06-27T17:19:06.388Z,26.18
2018-06-27T17:21:33.754Z,26.21
2018-06-27T17:24:01.020Z,26.05
2018-06-27T17:26:28.328Z,26.00
2018-06-27T17:28:55.735Z,25.96
2018-06-27T17:31:23.412Z,25.77
2018-06-27T17:33:50.885Z,25.65
2018-06-27T17:36:18.388Z,25.38
2018-06-27T17:38:46.003Z,25.31
2018-06-27T17:41:13.384Z,25.09
2018-06-27T17:43:40.706Z,25.01
2018-06-27T17:46:08.146Z,25.01
2018-06-27T17:48:35.528Z,24.94
2018-06-27T17:51:04.088Z,24.92
2018-06-27T17:53:32.919Z,24.83
2018-06-27T17:56:00.340Z,24.76
2018-06-27T17:58:31.080Z,24.60
2018-06-27T18:00:58.436Z,24.57
2018-06-27T18:03:35.874Z,24.59
2018-06-27T18:06:03.198Z,24.43
2018-06-27T18:08:31.858Z,24.24
2018-06-27T18:10:59.675Z,24.16
2018-06-27T18:13:34.175Z,24.08
2018-06-27T18:16:02.196Z,24.13
2018-06-27T18:18:29.805Z,24.08
2018-06-27T18:20:57.257Z,23.98
2018-06-27T18:23:25.078Z,23.86
2018-06-27T18:25:52.472Z,23.82
2018-06-27T18:28:19.803Z,23.73
2018-06-27T18:30:47.210Z,23.71
2018-06-27T18:33:14.540Z,23.62
2018-06-27T18:35:41.935Z,23.51
2018-06-27T18:38:09.278Z,23.50
2018-06-27T18:40:36.571Z,23.43
2018-06-27T18:43:03.955Z,23.29
2018-06-27T18:45:31.214Z,23.30
2018-06-27T18:47:58.590Z,23.34
2018-06-27T18:50:25.884Z,23.34
2018-06-27T18:52:53.268Z,23.32
2018-06-27T18:55:20.616Z,23.34
2018-06-27T18:57:47.940Z,23.28
2018-06-27T19:00:15.231Z,23.29
2018-06-27T19:02:42.520Z,23.21
2018-06-27T19:05:09.855Z,23.11
2018-06-27T19:07:37.472Z,23.10
2018-06-27T19:10:05.258Z,22.94
2018-06-27T19:12:32.593Z,22.83
2018-06-27T19:15:07.908Z,22.79
2018-06-27T19:17:35.247Z,22.77
2018-06-27T19:20:02.559Z,22.70
2018-06-27T19:22:29.821Z,22.65
2018-06-27T19:24:57.270Z,22.55
2018-06-27T19:27:24.510Z,22.26
2018-06-27T19:29:51.851Z,22.38
2018-06-27T19:32:19.174Z,22.32
2018-06-27T19:34:46.459Z,22.32
2018-06-27T19:37:35.676Z,22.19
2018-06-27T19:40:04.261Z,21.96
2018-06-27T19:42:31.679Z,21.98
2018-06-27T19:45:05.980Z,21.94
2018-06-27T19:47:38.591Z,21.32
2018-06-27T19:50:17.769Z,21.65
2018-06-27T19:52:45.584Z,21.66
2018-06-27T19:55:23.538Z,21.67
2018-06-27T19:57:50.913Z,21.64
2018-06-27T20:00:20.438Z,21.61
2018-06-27T20:02:50.669Z,21.66
2018-06-27T20:05:18.055Z,21.64
2018-06-27T20:07:47.198Z,21.61
2018-06-27T20:10:14.583Z,21.55
2018-06-27T20:12:42.031Z,21.51
2018-06-27T20:15:09.534Z,21.49
2018-06-27T20:17:37.057Z,21.45
2018-06-27T20:20:04.655Z,21.39
2018-06-27T20:22:55.735Z,21.47
2018-06-27T20:25:23.138Z,21.43
2018-06-27T20:27:50.592Z,21.30
2018-06-27T20:30:18.077Z,21.24
2018-06-27T20:32:46.854Z,21.27
2018-06-27T20:35:14.200Z,21.02
2018-06-27T20:37:41.658Z,21.02
2018-06-27T20:40:09.078Z,20.97
2018-06-27T20:42:38.326Z,20.98
2018-06-27T20:45:08.292Z,20.93
2018-06-27T20:47:35.637Z,20.97
2018-06-27T20:50:03.884Z,21.04
2018-06-27T20:52:31.748Z,21.02
2018-06-27T20:54:59.339Z,21.00
2018-06-27T20:57:27.127Z,21.00
2018-06-27T20:59:54.519Z,20.98
2018-06-27T21:02:21.948Z,20.89
2018-06-27T21:04:49.335Z,20.87
2018-06-27T21:07:16.725Z,20.81
2018-06-27T21:09:44.206Z,20.77
2018-06-27T21:12:11.544Z,20.67
2018-06-27T21:14:38.973Z,20.67
2018-06-27T21:17:06.408Z,20.62
2018-06-27T21:19:33.734Z,20.59
2018-06-27T21:22:01.331Z,20.39
2018-06-27T21:24:28.707Z,20.40
2018-06-27T21:26:56.115Z,20.45
2018-06-27T21:29:23.572Z,20.43
2018-06-27T21:31:50.918Z,20.34
2018-06-27T21:34:18.309Z,20.31
2018-06-27T21:36:45.773Z,20.22
2018-06-27T21:39:13.214Z,20.18
2018-06-27T21:41:40.603Z,20.09
2018-06-27T21:44:07.934Z,19.98
2018-06-27T21:46:35.317Z,19.95
2018-06-27T21:49:02.689Z,19.91
2018-06-27T21:51:30.032Z,19.78
2018-06-27T21:53:57.458Z,19.69
2018-06-27T21:56:24.865Z,19.66
2018-06-27T21:58:52.205Z,19.68
2018-06-27T22:01:20.124Z,19.65
2018-06-27T22:03:52.138Z,19.64
2018-06-27T22:06:19.592Z,19.60
2018-06-27T22:08:47.029Z,19.52
2018-06-27T22:11:15.042Z,19.36
2018-06-27T22:13:42.469Z,19.44
2018-06-27T22:16:09.837Z,19.45
2018-06-27T22:18:37.182Z,19.43
2018-06-27T22:21:04.658Z,19.37
2018-06-27T22:23:32.035Z,19.26
2018-06-27T22:25:59.455Z,19.25
2018-06-27T22:28:26.805Z,19.21
2018-06-27T22:30:54.262Z,19.21
2018-06-27T22:33:21.609Z,19.20
2018-06-27T22:35:48.928Z,19.12
2018-06-27T22:38:16.289Z,19.08
2018-06-27T22:40:43.647Z,19.05
2018-06-27T22:43:11.001Z,18.99
2018-06-27T22:45:38.354Z,18.89
2018-06-27T22:48:05.726Z,18.79
2018-06-27T22:50:33.102Z,18.72
2018-06-27T22:53:00.447Z,18.64
2018-06-27T22:55:27.726Z,18.51
2018-06-27T22:57:55.014Z,18.47
2018-06-27T23:00:23.396Z,18.45
2018-06-27T23:02:54.667Z,18.42
2018-06-27T23:05:22.068Z,18.32
2018-06-27T23:07:49.452Z,18.19
2018-06-27T23:10:16.762Z,18.11
2018-06-27T23:12:44.339Z,18.12
2018-06-27T23:15:13.312Z,18.10
2018-06-27T23:17:40.719Z,18.09
2018-06-27T23:20:08.251Z,18.11
2018-06-27T23:22:46.795Z,18.10
2018-06-27T23:25:14.313Z,18.09
2018-06-27T23:27:42.969Z,17.93
2018-06-27T23:30:10.367Z,18.10
2018-06-27T23:32:38.160Z,18.05
2018-06-27T23:35:05.573Z,17.99
2018-06-27T23:37:32.919Z,17.94
2018-06-27T23:40:00.232Z,17.90
2018-06-27T23:42:27.562Z,17.77
2018-06-27T23:44:54.971Z,17.83
2018-06-27T23:47:22.307Z,17.83
2018-06-27T23:49:49.668Z,17.82
2018-06-27T23:52:17.024Z,17.81
2018-06-27T23:54:44.427Z,17.72
2018-06-27T23:57:11.939Z,17.70
2018-06-27T23:59:39.233Z,17.62
